Latest Coastal Weather Observations for Merimbula

IDN60701

Issued at 11:01 am EDT Friday 24 November 2017 (issued every 10 minutes, with the page automatically refreshed every 10 minutes)

About coastal observations | Map of coastal stations | Coastal observations for NSW | Marine services | Other Formats
Station Details ID: 069147 Name: MERIMBULA AIRPORT AWS Lat: -36.91 Lon: 149.90 Height: 1.5 m
Data from the previous 72 hours. | See also: Recent months at Merimbula
Date/Time
EDT
Temp
°C
Wind Pressure Rain since
9am
mm
Weather Cloud Vis
km
Sea
Height
m
Swell
Dir  Spd
kts
Gust
kts
hPa Trend Height
m
Period
s
Dir
24/11:00am 25.0 ENE 10 14 1014.6 - 0.0 - Clear 10 - - - -
24/10:30am 24.1 NE 10 13 1014.5 - 0.0 - - 10 - - - -
24/10:00am 23.8 NE 7 12 1014.6 - 0.0 - - 10 - - - -
24/09:30am 23.1 E 5 7 1014.8 - 0.0 - - 10 - - - -
24/09:00am 21.2 E 2 6 1014.8 - 0.0 - - 10 - - - -
24/08:30am 20.7 CALM 0 0 1014.8 - 0.0 - - 10 - - - -
24/08:00am 18.5 CALM 0 0 1014.7 - 0.0 - - 10 - - - -
24/07:30am 16.7 CALM 0 0 1014.8 - 0.0 - - 10 - - - -
24/07:00am 14.4 CALM 0 0 1014.7 - 0.0 - - 10 - - - -
24/06:30am 12.6 SW 2 5 1014.5 - 0.0 - - 10 - - - -
24/06:00am 11.5 SSW 4 5 1014.2 - 0.0 - - 10 - - - -
24/05:30am 12.2 CALM 0 0 1014.0 - 0.0 - - 10 - - - -
24/05:00am 11.8 CALM 0 0 1013.8 - 0.0 - - 10 - - - -
24/04:30am 11.5 CALM 0 0 1013.5 - 0.0 - - 10 - - - -
24/04:00am 11.2 CALM 0 0 1013.4 - 0.0 - - 10 - - - -
24/03:30am 11.3 CALM 0 0 1013.3 - 0.0 - - 10 - - - -
24/03:00am 11.8 CALM 0 0 1013.4 - 0.0 - - 10 - - - -
24/02:30am 12.7 SSW 2 6 1013.5 - 0.0 - - 10 - - - -
24/02:00am 12.9 SSW 3 6 1013.6 - 0.0 - - 10 - - - -
24/01:30am 12.6 CALM 0 3 1013.8 - 0.0 - - 10 - - - -
24/01:00am 13.7 WSW 2 5 1014.0 - 0.0 - - 10 - - - -
24/12:30am 13.8 CALM 0 3 1014.3 - 0.0 - - 10 - - - -
24/12:00am 13.8 CALM 0 0 1014.5 - 0.0 - - 10 - - - -
 
Date/Time
EDT
Temp
°C
Wind Pressure Rain since
9am
mm
Weather Cloud Vis
km
Sea
Height
m
Swell
Dir  Spd
kts
Gust
kts
hPa Trend Height
m
Period
s
Dir
23/11:34pm 14.3 S 1 5 1014.6 - 0.0 - - 7 - - - -
23/11:30pm 13.9 CALM 0 0 1014.7 - 0.0 - - 6 - - - -
23/11:00pm 14.7 SE 3 3 1014.7 - 0.0 - - 4 - - - -
23/10:52pm 14.9 ESE 3 5 1014.9 - 0.0 - - 5 - - - -
23/10:30pm 15.9 SW 1 3 1014.7 - 0.0 - - 10 - - - -
23/10:00pm 15.6 CALM 0 0 1014.6 - 0.0 - - 9 - - - -
23/09:30pm 16.0 SSE 1 3 1014.4 - 0.0 - - 10 - - - -
23/09:00pm 17.8 NNE 4 6 1013.9 - 0.0 - Mostly clear 10 - - - -
23/08:30pm 18.6 NE 5 6 1013.7 - 0.0 - - 10 - - - -
23/08:00pm 19.4 NE 6 8 1013.7 - 0.0 - - 10 - - - -
23/07:30pm 20.2 NNE 7 14 1013.4 - 0.0 - Partly cloudy 10 - - - -
23/07:00pm 20.5 NE 8 11 1013.6 - 0.0 - Partly cloudy 10 - - - -
23/06:30pm 20.2 NE 8 13 1013.2 - 0.0 - - 10 - - - -
23/06:00pm 21.9 NE 6 8 1013.0 - 0.0 - Mostly cloudy 10 - - - -
23/05:30pm 21.5 CALM 0 0 1013.4 - 0.0 - - 10 - - - -
23/05:02pm 21.1 CALM 0 0 1013.8 - 0.0 - Partly cloudy 10 - - - -
23/05:00pm 21.2 S 1 4 1013.8 - 0.0 - Partly cloudy 10 - - - -
23/04:48pm 21.7 WSW 5 8 1013.9 - 0.0 - Partly cloudy 10 - - - -
23/04:30pm 21.5 N 3 6 1013.8 - 0.0 - Partly cloudy 10 - - - -
23/04:00pm 21.5 NE 7 11 1013.6 - 0.0 - - 10 - - - -
23/03:30pm 22.2 NE 6 11 1014.0 - 0.0 - - 10 - - - -
23/03:00pm 22.3 NNE 8 15 1013.8 - 0.0 - Partly cloudy 10 - - - -
23/02:30pm 19.3 NNE 14 23 1012.7 - 0.0 - Partly cloudy 10 - - - -
23/02:00pm 19.7 NNE 9 16 1013.5 - 0.0 - Partly cloudy 10 - - - -
23/01:30pm 20.4 NE 11 17 1014.2 - 0.0 - - 10 - - - -
23/01:00pm 20.5 NNE 10 15 1015.1 - 0.0 - Partly cloudy 10 - - - -
23/12:30pm 20.4 NE 9 14 1014.8 - 0.0 - Cloudy 10 - - - -
23/12:00pm 20.6 NE 11 17 1014.7 - 0.0 - Cloudy 10 - - - -
23/11:30am 21.4 NNE 10 22 1014.9 - 0.0 - - 10 - - - -
23/11:00am 22.5 NE 13 20 1014.9 - 0.0 - Partly cloudy 10 - - - -
23/10:30am 22.4 NNE 11 18 1015.3 - 0.0 - Partly cloudy 10 - - - -
23/10:00am 21.9 NE 11 16 1015.3 - 0.0 - - 10 - - - -
23/09:30am 21.4 NE 9 16 1015.6 - 0.0 - - 10 - - - -
23/09:00am 20.6 NNE 6 11 1015.9 - 0.0 - - 10 - - - -
23/08:30am 18.8 ENE 6 9 1016.0 - 0.0 - - 10 - - - -
23/08:00am 20.1 E 5 8 1015.9 - 0.0 - Partly cloudy 10 - - - -
23/07:30am 19.2 N 5 9 1015.9 - 0.0 - - 10 - - - -
23/07:00am 18.2 NNE 3 5 1015.9 - 0.0 - Partly cloudy 10 - - - -
23/06:30am 17.1 NNE 1 4 1015.8 - 0.0 - Partly cloudy 10 - - - -
23/06:00am 16.5 N 4 7 1015.7 - 0.0 - - 10 - - - -
23/05:30am 16.6 NNE 4 6 1015.6 - 0.0 - - 10 - - - -
23/05:00am 16.8 NNE 5 7 1015.5 - 0.0 - - 10 - - - -
23/04:30am 17.0 NNE 5 8 1015.4 - 0.0 - - 10 - - - -
23/04:00am 17.3 NNE 6 8 1015.4 - 0.0 - - 10 - - - -
23/03:30am 17.4 NNE 7 12 1015.5 - 0.0 - - 10 - - - -
23/03:00am 17.7 NE 7 11 1015.7 - 0.0 - Mostly clear 10 - - - -
23/02:30am 18.0 NNE 5 11 1016.1 - 0.0 - Partly cloudy 10 - - - -
23/02:00am 18.4 NNE 6 10 1016.4 - 0.0 - Partly cloudy 10 - - - -
23/01:30am 18.8 NNE 8 14 1016.7 - 0.0 - Partly cloudy 10 - - - -
23/01:00am 18.8 NNE 8 15 1017.0 - 0.0 - Cloudy 10 - - - -
23/12:30am 18.7 NNE 7 12 1017.5 - 0.0 - Partly cloudy 10 - - - -
23/12:00am 18.7 NNE 7 15 1017.9 - 0.0 - Cloudy 10 - - - -
 
Date/Time
EDT
Temp
°C
Wind Pressure Rain since
9am
mm
Weather Cloud Vis
km
Sea
Height
m
Swell
Dir  Spd
kts
Gust
kts
hPa Trend Height
m
Period
s
Dir
22/11:30pm 18.8 NNE 8 16 1018.1 - 0.0 - Cloudy 10 - - - -
22/11:00pm 18.8 NNE 8 14 1018.1 - 0.0 - Cloudy 10 - - - -
22/10:30pm 18.8 NNE 8 15 1018.3 - 0.0 - Cloudy 10 - - - -
22/10:00pm 18.7 NNE 7 13 1018.5 - 0.0 - Partly cloudy 10 - - - -
22/09:30pm 18.8 NNE 7 13 1018.3 - 0.0 - Cloudy 10 - - - -
22/09:00pm 18.7 NNE 6 13 1018.2 - 0.0 - Mostly cloudy 10 - - - -
22/08:30pm 18.6 NNE 7 13 1018.0 - 0.0 - Partly cloudy 10 - - - -
22/08:00pm 18.5 NNE 7 13 1017.9 - 0.0 - - 10 - - - -
22/07:30pm 18.8 NNE 8 15 1017.7 - 0.0 - - 10 - - - -
22/07:00pm 19.0 NNE 9 15 1017.6 - 0.0 - - 10 - - - -
22/06:30pm 20.1 NNE 9 16 1017.4 - 0.0 - Partly cloudy 10 - - - -
22/06:00pm 19.5 NNE 9 15 1017.4 - 0.0 - - 10 - - - -
22/05:30pm 19.9 NE 10 16 1017.3 - 0.0 - Partly cloudy 10 - - - -
22/05:00pm 20.4 NE 11 18 1017.5 - 0.0 - Cloudy 10 - - - -
22/04:30pm 20.9 NE 11 17 1017.6 - 0.0 - Partly cloudy 10 - - - -
22/04:00pm 21.8 NNE 12 19 1017.7 - 0.0 - - 10 - - - -
22/03:30pm 22.2 NE 11 16 1018.0 - 0.0 - - 10 - - - -
22/03:00pm 22.7 NE 10 16 1018.2 - 0.0 - - 10 - - - -
22/02:30pm 22.3 NE 11 19 1018.5 - 0.0 - - 10 - - - -
22/02:00pm 22.0 NE 13 19 1018.7 - 0.0 - - 10 - - - -
22/01:30pm 21.8 NE 12 19 1019.0 - 0.0 - - 10 - - - -
22/01:00pm 21.7 NE 11 20 1019.4 - 0.0 - - 10 - - - -
22/12:30pm 21.9 NE 10 17 1019.7 - 0.0 - - 10 - - - -
22/12:00pm 21.0 NE 11 19 1020.0 - 0.0 - - 10 - - - -
22/11:30am 20.9 NE 11 17 1020.2 - 0.0 - - 10 - - - -
22/11:00am 20.7 NE 11 17 1020.5 - 0.0 - - 10 - - - -
22/10:30am 21.0 NE 9 14 1020.6 - 0.0 - - 10 - - - -
22/10:00am 20.5 NE 9 14 1020.7 - 0.0 - - 10 - - - -
22/09:30am 20.2 ENE 7 9 1020.9 - 0.0 - - 10 - - - -
22/09:00am 20.3 ENE 8 12 1021.2 - 0.0 - - 10 - - - -
22/08:30am 19.2 E 6 9 1021.3 - 0.0 - - 10 - - - -
22/08:00am 18.8 E 3 6 1021.2 - 0.0 - - 10 - - - -
22/07:30am 17.5 NW 4 7 1021.2 - 0.0 - - 10 - - - -
22/07:00am 15.8 NW 5 7 1021.0 - 0.0 - - 10 - - - -
22/06:30am 14.0 NW 5 7 1021.0 - 0.0 - - 10 - - - -
22/06:00am 13.0 NW 4 6 1020.9 - 0.0 - - 10 - - - -
22/05:30am 13.7 NW 5 7 1020.8 - 0.0 - Partly cloudy 10 - - - -
22/05:00am 14.0 NW 5 6 1020.8 - 0.0 - Partly cloudy 10 - - - -
22/04:30am 14.2 NW 5 7 1020.8 - 0.0 - Partly cloudy 10 - - - -
22/04:00am 14.6 NW 5 7 1020.8 - 0.0 - Partly cloudy 10 - - - -
22/03:30am 14.9 NW 5 7 1021.1 - 0.0 - Partly cloudy 10 - - - -
22/03:00am 14.7 NW 5 6 1021.3 - 0.0 - Mostly clear 10 - - - -
22/02:30am 14.9 NNW 4 8 1021.3 - 0.0 - Partly cloudy 10 - - - -
22/02:00am 15.4 NNW 5 7 1021.6 - 0.0 - Partly cloudy 10 - - - -
22/01:30am 15.6 NNW 3 5 1021.7 - 0.0 - Partly cloudy 10 - - - -
22/01:00am 15.5 NNW 4 7 1022.1 - 0.0 - Partly cloudy 10 - - - -
22/12:30am 15.7 NNW 5 8 1022.3 - 0.0 - - 10 - - - -
22/12:00am 16.4 N 5 8 1022.5 - 0.0 - - 10 - - - -
 
Date/Time
EDT
Temp
°C
Wind Pressure Rain since
9am
mm
Weather Cloud Vis
km
Sea
Height
m
Swell
Dir  Spd
kts
Gust
kts
hPa Trend Height
m
Period
s
Dir
21/11:30pm 16.1 N 5 9 1022.6 - 0.0 - - 10 - - - -
21/11:00pm 16.1 N 5 7 1022.9 - 0.0 - - 10 - - - -
21/10:30pm 16.4 N 4 7 1023.1 - 0.0 - - 10 - - - -
21/10:00pm 17.2 N 5 7 1023.1 - 0.0 - - 10 - - - -
21/09:30pm 17.5 NNE 5 10 1023.1 - 0.0 - - 10 - - - -
21/09:00pm 17.8 NNE 7 11 1022.8 - 0.0 - - 10 - - - -
21/08:30pm 17.7 NNE 6 9 1022.7 - 0.0 - - 10 - - - -
21/08:00pm 18.0 NNE 7 10 1022.5 - 0.0 - - 10 - - - -
21/07:30pm 18.6 NNE 8 12 1022.3 - 0.0 - - 10 - - - -
21/07:00pm 19.8 NNE 8 13 1022.4 - 0.0 - - 10 - - - -
21/06:30pm 19.8 NE 10 16 1022.4 - 0.0 - - 10 - - - -
21/06:00pm 20.1 NE 9 14 1022.3 - 0.0 - - 10 - - - -
21/05:30pm 20.5 NE 10 16 1022.3 - 0.0 - - 10 - - - -
21/05:00pm 21.0 NE 10 15 1022.4 - 0.0 - - 10 - - - -
21/04:30pm 21.3 NE 11 18 1022.3 - 0.0 - - 10 - - - -
21/04:00pm 21.3 NE 10 17 1022.4 - 0.0 - - 10 - - - -
21/03:30pm 21.1 NE 12 18 1022.5 - 0.0 - - 10 - - - -
21/03:00pm 21.8 NE 10 20 1022.7 - 0.0 - - 10 - - - -
21/02:30pm 21.7 NE 12 19 1023.0 - 0.0 - - 10 - - - -
21/02:00pm 21.7 NNE 13 21 1023.4 - 0.0 - - 10 - - - -
21/01:30pm 22.1 NE 12 20 1023.9 - 0.0 - - 10 - - - -
21/01:00pm 22.5 NE 11 17 1024.1 - 0.0 - - 10 - - - -
21/12:30pm 21.6 NE 12 17 1024.4 - 0.0 - - 10 - - - -
21/12:00pm 22.0 NE 10 17 1024.7 - 0.0 - - 10 - - - -
21/11:30am 22.2 NE 9 14 1025.0 - 0.0 - - 10 - - - -

Other Formats:

Comma delimited format used in spreadsheet applications
http://www.bom.gov.au/fwo/IDN60701/IDN60701.95929.axf

JavaScript Object Notation format (JSON) in row-major order
http://www.bom.gov.au/fwo/IDN60701/IDN60701.95929.json